createdAt,value
2017-11-06T20:05:02.554Z,48.5
2017-11-06T20:05:14.626Z,48.4
2017-11-06T20:05:26.066Z,48.6
2017-11-06T20:05:41.690Z,48.7
2017-11-06T20:05:54.018Z,48.6
2017-11-06T20:06:05.591Z,48.9
2017-11-06T20:06:17.053Z,48.8
2017-11-06T20:06:28.624Z,49
2017-11-06T20:06:40.254Z,48.5
2017-11-06T20:06:51.777Z,48.6
2017-11-06T20:07:03.326Z,48.6
2017-11-06T20:07:19.765Z,49
2017-11-06T20:07:32.839Z,48.6
2017-11-06T20:07:44.298Z,48.7
2017-11-06T20:07:55.889Z,48.8
2017-11-06T20:08:07.451Z,48.9
2017-11-06T20:08:24.741Z,48.9
2017-11-06T20:08:40.870Z,48.9
2017-11-06T20:08:53.292Z,48.5
2017-11-06T20:09:04.811Z,48.7
2017-11-06T20:09:16.294Z,48.9
2017-11-06T20:09:27.877Z,48.5
2017-11-06T20:09:43.445Z,48.6
2017-11-06T20:09:55.822Z,48.5
2017-11-06T20:10:07.358Z,48.5
2017-11-06T20:10:23.034Z,48.5
2017-11-06T20:10:35.207Z,48.7
2017-11-06T20:10:47.541Z,48.5
2017-11-06T20:11:00.001Z,48.5
2017-11-06T20:11:11.496Z,48.6
2017-11-06T20:11:23.084Z,48.7
2017-11-06T20:11:34.596Z,48.7
2017-11-06T20:11:46.729Z,48.5
2017-11-06T20:11:59.376Z,48.6
2017-11-06T20:12:10.854Z,48.4
2017-11-06T20:12:26.406Z,48.5
2017-11-06T20:12:38.873Z,48.2
2017-11-06T20:12:54.272Z,48.2
2017-11-06T20:13:06.710Z,48.1
2017-11-06T20:13:18.225Z,47.9
2017-11-06T20:13:32.953Z,48.2
2017-11-06T20:13:46.126Z,48.7
2017-11-06T20:13:57.670Z,48.2
2017-11-06T20:14:10.857Z,48.2
2017-11-06T20:14:23.974Z,48.2
2017-11-06T20:14:37.053Z,48.2
2017-11-06T20:14:48.695Z,48
2017-11-06T20:15:04.265Z,48.3
2017-11-06T20:15:20.567Z,47.9
2017-11-06T20:15:33.669Z,47.9
2017-11-06T20:15:45.976Z,47.9
2017-11-06T20:15:58.061Z,48
2017-11-06T20:16:10.733Z,48.1
2017-11-06T20:16:23.812Z,48.2
2017-11-06T20:16:37.011Z,48.1
2017-11-06T20:16:48.576Z,47.7
2017-11-06T20:17:00.182Z,47.7
2017-11-06T20:17:11.777Z,47.9
2017-11-06T20:17:23.239Z,47.6
2017-11-06T20:17:34.800Z,47.9
2017-11-06T20:17:46.271Z,47.8
2017-11-06T20:17:57.945Z,47.7
2017-11-06T20:18:09.514Z,47.5
2017-11-06T20:18:22.603Z,47.7
2017-11-06T20:18:35.709Z,48
2017-11-06T20:18:51.279Z,48.1
2017-11-06T20:19:03.695Z,48.2
2017-11-06T20:19:15.256Z,47.9
2017-11-06T20:19:26.789Z,47.9
2017-11-06T20:19:42.434Z,47.7
2017-11-06T20:19:54.671Z,47.8
2017-11-06T20:20:06.259Z,47.9
2017-11-06T20:20:19.361Z,47.8
2017-11-06T20:20:30.991Z,47.8
2017-11-06T20:20:42.479Z,47.7
2017-11-06T20:20:54.084Z,47.8
2017-11-06T20:21:07.228Z,47.8
2017-11-06T20:21:18.735Z,47.7
2017-11-06T20:21:30.316Z,47.6
2017-11-06T20:21:47.611Z,47.3
2017-11-06T20:21:59.767Z,47.3
2017-11-06T20:22:16.002Z,47.4
2017-11-06T20:22:31.723Z,47.4
2017-11-06T20:22:44.064Z,47.3
2017-11-06T20:22:59.652Z,47.3
2017-11-06T20:23:11.944Z,47.4
2017-11-06T20:23:23.601Z,47.6
2017-11-06T20:23:35.035Z,47.6
2017-11-06T20:23:46.596Z,47.4
2017-11-06T20:24:08.166Z,47.5
2017-11-06T20:24:20.924Z,47.4
2017-11-06T20:24:32.524Z,47.2
2017-11-06T20:24:44.045Z,47.3
2017-11-06T20:24:56.545Z,47.5
2017-11-06T20:25:12.687Z,47
2017-11-06T20:25:26.107Z,47
2017-11-06T20:25:38.184Z,47.1
2017-11-06T20:25:49.688Z,47.2
2017-11-06T20:26:05.408Z,47
2017-11-06T20:26:17.635Z,47
2017-11-06T20:26:29.654Z,47
2017-11-06T20:26:46.408Z,47
2017-11-06T20:26:58.641Z,47
2017-11-06T20:27:10.432Z,47
2017-11-06T20:27:27.388Z,47
2017-11-06T20:27:41.370Z,47.2
2017-11-06T20:27:52.839Z,47
2017-11-06T20:28:04.540Z,47.1
2017-11-06T20:28:15.956Z,46.9
2017-11-06T20:28:27.428Z,46.9
2017-11-06T20:28:44.097Z,47.1
2017-11-06T20:29:00.949Z,47.1
2017-11-06T20:29:13.372Z,47
2017-11-06T20:33:46.547Z,46.9
2017-11-06T20:33:58.998Z,47.2
2017-11-06T20:34:11.992Z,47.2
2017-11-06T20:34:23.574Z,47.2
2017-11-06T20:34:39.105Z,46.9
2017-11-06T20:34:55.460Z,47
2017-11-06T20:35:11.956Z,47.7
2017-11-06T20:35:28.173Z,47.1
2017-11-06T20:35:40.545Z,47.1
2017-11-06T20:35:52.084Z,47
2017-11-06T20:36:03.627Z,47
2017-11-06T20:36:19.261Z,47
2017-11-06T20:36:31.545Z,47
2017-11-06T20:36:43.171Z,46.9
2017-11-06T20:36:56.809Z,47.1
2017-11-06T20:37:13.483Z,47.1
2017-11-06T20:37:25.868Z,47
2017-11-06T20:37:41.321Z,46.9
2017-11-06T20:37:53.599Z,47.1
2017-11-06T20:38:06.778Z,47
2017-11-06T20:38:18.309Z,47.1
2017-11-06T20:38:30.489Z,47.1
2017-11-06T20:38:43.057Z,47
2017-11-06T20:38:54.682Z,46.9
2017-11-06T20:39:10.160Z,47
2017-11-06T20:39:27.454Z,47
2017-11-06T20:39:40.431Z,47
2017-11-06T20:39:51.931Z,47
2017-11-06T20:40:04.081Z,47.1
2017-11-06T20:40:16.663Z,47
2017-11-06T20:40:28.233Z,46.9
2017-11-06T20:40:39.832Z,46.9
2017-11-06T20:40:52.355Z,46.8
2017-11-06T20:41:04.494Z,46.9
2017-11-06T20:41:19.980Z,46.9
2017-11-06T20:41:32.378Z,47.1
2017-11-06T20:54:45.292Z,47
2017-11-06T20:54:57.898Z,46.9
2017-11-06T20:55:09.477Z,47
2017-11-06T20:55:22.625Z,47
2017-11-06T20:55:34.157Z,46.9
2017-11-06T20:55:45.654Z,46.8
2017-11-06T20:55:57.289Z,47
2017-11-06T20:56:08.748Z,47
2017-11-06T20:56:24.298Z,47.1
2017-11-06T20:56:40.612Z,46.8
2017-11-06T20:56:57.062Z,46.7
2017-11-06T20:57:09.446Z,46.8
2017-11-06T20:57:24.906Z,46.9
2017-11-06T20:57:41.311Z,47
2017-11-06T20:57:53.665Z,47
2017-11-06T20:58:05.128Z,46.8
2017-11-06T20:58:16.678Z,46.8
2017-11-06T20:58:28.402Z,46.9
2017-11-06T20:58:45.403Z,46.8
2017-11-06T20:58:57.745Z,46.9
2017-11-06T20:59:09.465Z,46.9
2017-11-06T20:59:22.533Z,47.1
2017-11-06T20:59:34.064Z,47.1
2017-11-06T20:59:45.615Z,47
2017-11-06T21:00:01.233Z,46.9
2017-11-06T21:00:13.535Z,47.1
2017-11-06T21:00:25.107Z,47.1
2017-11-06T21:00:36.595Z,47.2
2017-11-06T21:00:48.128Z,47
2017-11-06T21:00:59.657Z,47.1
2017-11-06T21:01:11.241Z,47.1
2017-11-06T21:01:22.820Z,47.2
2017-11-06T21:01:34.420Z,47.1
2017-11-06T21:01:49.913Z,47
2017-11-06T21:02:02.257Z,47.1
2017-11-06T21:02:15.465Z,47
2017-11-06T21:02:31.042Z,47.1
2017-11-06T21:02:43.335Z,46.5
2017-11-06T21:02:54.936Z,47.2
2017-11-06T21:03:08.057Z,47
2017-11-06T21:03:19.682Z,47
2017-11-06T21:03:31.106Z,46.7
2017-11-06T21:03:42.717Z,46.4
2017-11-06T21:03:54.263Z,46.3
2017-11-06T21:04:05.862Z,46.2
2017-11-06T21:04:17.335Z,46.3
2017-11-06T21:04:29.044Z,46.2
2017-11-06T21:04:40.494Z,46.3
2017-11-06T21:04:56.021Z,46.4
2017-11-06T21:05:12.305Z,46.4
2017-11-06T21:05:28.643Z,46.3
2017-11-06T21:05:45.137Z,46.5
2017-11-06T21:05:57.471Z,46.5
2017-11-06T21:06:12.977Z,46.4
2017-11-06T21:06:25.314Z,46.6
2017-11-06T21:06:36.844Z,46.5
2017-11-06T21:06:48.410Z,46.5
2017-11-06T21:07:03.917Z,47
2017-11-06T21:07:16.249Z,47.2
2017-11-06T21:07:27.853Z,46.8
2017-11-06T21:07:39.387Z,46.8
2017-11-06T21:07:50.914Z,46.7
2017-11-06T21:08:02.662Z,47
2017-11-06T21:08:14.118Z,47.2
2017-11-06T21:08:29.655Z,47.2
2017-11-06T21:08:55.865Z,47.1
2017-11-06T21:09:07.870Z,47.2
2017-11-06T21:09:19.562Z,46.7
2017-11-06T21:09:34.974Z,46.6
2017-11-06T21:09:47.335Z,46.3
2017-11-06T21:10:02.935Z,46.2
2017-11-06T21:10:15.225Z,46.3
2017-11-06T21:10:26.731Z,46.3
2017-11-06T21:10:38.386Z,46.3
2017-11-06T21:10:50.027Z,46.1
2017-11-06T21:11:04.648Z,46
2017-11-06T21:11:16.220Z,46.3
2017-11-06T21:11:27.713Z,46.3
2017-11-06T21:11:39.879Z,46.1
2017-11-06T21:11:56.490Z,46.3
2017-11-06T21:12:08.831Z,46.2
2017-11-06T21:12:20.417Z,46.3
2017-11-06T21:12:31.919Z,46.4
2017-11-06T21:12:47.459Z,46.5
2017-11-06T21:13:03.893Z,46.4
2017-11-06T21:13:16.212Z,46.4
2017-11-06T21:13:27.683Z,46.5
2017-11-06T21:13:39.424Z,46.5
2017-11-06T21:13:54.882Z,46.5
2017-11-06T21:14:07.214Z,46.5
2017-11-06T21:14:18.701Z,46.5
2017-11-06T21:14:34.753Z,46.4
2017-11-06T21:14:52.459Z,46.5
2017-11-06T21:15:05.182Z,46.4
2017-11-06T21:15:17.684Z,46.2
2017-11-06T21:15:43.203Z,46.3
2017-11-06T21:16:00.255Z,46.1
2017-11-06T21:16:11.574Z,46.4
2017-11-06T21:16:23.111Z,46.4
2017-11-06T21:16:34.743Z,46.4
2017-11-06T21:16:46.231Z,46.4
2017-11-06T21:16:57.801Z,47.2
2017-11-06T21:17:09.334Z,46.4
2017-11-06T21:17:20.878Z,46.6
2017-11-06T21:17:32.433Z,46.3
2017-11-06T21:17:48.033Z,46.4
2017-11-06T21:18:01.369Z,46.4
2017-11-06T21:18:13.500Z,46.1
2017-11-06T21:18:28.988Z,46.2
2017-11-06T21:18:41.401Z,46.1
2017-11-06T21:18:53.008Z,46
2017-11-06T21:19:08.436Z,46
2017-11-06T21:19:20.786Z,45.8
2017-11-06T21:19:32.428Z,46
2017-11-06T21:19:47.976Z,46
2017-11-06T21:20:00.262Z,45.8
2017-11-06T21:20:11.793Z,46.1
2017-11-06T21:20:23.400Z,46.1
2017-11-06T21:20:34.964Z,46
2017-11-06T21:20:46.482Z,45.6
2017-11-06T21:20:58.074Z,46
2017-11-06T21:21:13.559Z,45.9
2017-11-06T21:21:29.953Z,45.8
2017-11-06T21:21:42.339Z,45.7
2017-11-06T21:21:53.866Z,45.8
2017-11-06T21:22:05.970Z,45.6
2017-11-06T21:22:18.647Z,46
2017-11-06T21:22:34.113Z,45.8
2017-11-06T21:22:50.435Z,45.9
2017-11-06T21:23:02.777Z,45.8
2017-11-06T21:23:14.437Z,45.9
2017-11-06T21:23:25.960Z,45.6
2017-11-06T21:23:37.469Z,46
2017-11-06T21:23:49.043Z,45.6
2017-11-06T21:24:00.591Z,46
2017-11-06T21:24:12.116Z,45.8
2017-11-06T21:24:27.726Z,45.8
2017-11-06T21:24:40.733Z,45.6
2017-11-06T21:24:57.163Z,45.7
2017-11-06T21:25:13.542Z,45.7
2017-11-06T21:25:25.932Z,45.8
2017-11-06T21:25:37.517Z,45.7
2017-11-06T21:25:49.015Z,45.8
2017-11-06T21:26:04.609Z,45.5
2017-11-06T21:26:20.868Z,45.5
2017-11-06T21:26:33.235Z,45.8
2017-11-06T21:26:49.293Z,45.8
2017-11-06T21:27:01.216Z,45.8
2017-11-06T21:27:12.815Z,45.7
2017-11-06T21:27:24.383Z,45.9
2017-11-06T21:27:35.785Z,45.7
2017-11-06T21:27:47.348Z,45.7
2017-11-06T21:27:59.512Z,46
2017-11-06T21:28:12.091Z,45.7
2017-11-06T21:28:24.625Z,46
2017-11-06T21:28:36.890Z,46.1
2017-11-06T21:28:48.453Z,46.1
2017-11-06T21:28:59.948Z,45.6
2017-11-06T21:29:15.504Z,46
2017-11-06T21:29:31.902Z,46.1
2017-11-06T21:29:48.187Z,46.1
2017-11-06T21:30:00.508Z,45.9
2017-11-06T21:30:12.075Z,45.9
2017-11-06T21:30:23.635Z,46
2017-11-06T21:30:35.141Z,45.8
2017-11-06T21:30:46.613Z,45.6
2017-11-06T21:30:58.208Z,45.6
2017-11-06T21:31:09.948Z,45.7
2017-11-06T21:31:21.352Z,45.7
2017-11-06T21:31:32.881Z,46
2017-11-06T21:31:48.475Z,46.1
2017-11-06T21:32:04.765Z,46
2017-11-06T21:32:21.164Z,45.9
2017-11-06T21:32:45.463Z,45.6
2017-11-06T21:32:57.917Z,45.6
2017-11-06T21:33:09.366Z,45.9
2017-11-06T21:33:20.914Z,45.8
2017-11-06T21:33:32.567Z,45.9
2017-11-06T21:33:44.081Z,45.7
2017-11-06T21:33:55.626Z,45.7
2017-11-06T21:34:07.153Z,45.5
2017-11-06T21:34:18.763Z,45.7
2017-11-06T21:34:30.255Z,45.8
2017-11-06T21:34:42.846Z,45.7
2017-11-06T21:34:55.035Z,45.7
2017-11-06T21:35:06.482Z,45.8
2017-11-06T21:35:22.125Z,46
2017-11-06T21:35:34.412Z,46
2017-11-06T21:35:45.901Z,45.6
2017-11-06T21:35:57.535Z,45.5
2017-11-06T21:36:09.060Z,45.6
2017-11-06T21:36:24.652Z,45.6
2017-11-06T21:36:36.958Z,45.8
2017-11-06T21:36:48.518Z,45.7
2017-11-06T21:37:00.140Z,45.9
